createdAt,value
2019-04-14T00:00:47.401Z,0.00
2019-04-14T00:01:47.754Z,0.00
2019-04-14T00:02:49.053Z,0.00
2019-04-14T00:03:48.095Z,0.00
2019-04-14T00:04:48.683Z,0.00
2019-04-14T00:05:49.593Z,0.00
2019-04-14T00:06:48.649Z,0.00
2019-04-14T00:07:49.532Z,0.00
2019-04-14T00:08:50.185Z,0.00
2019-04-14T00:09:49.842Z,0.00
2019-04-14T00:10:50.696Z,0.00
2019-04-14T00:11:50.452Z,0.00
2019-04-14T00:12:49.824Z,0.00
2019-04-14T00:13:50.269Z,0.00
2019-04-14T00:14:51.398Z,0.00
2019-04-14T00:15:51.966Z,0.00
2019-04-14T00:16:51.617Z,0.00
2019-04-14T00:17:50.819Z,0.00
2019-04-14T00:18:51.289Z,0.00
2019-04-14T00:19:52.395Z,0.00
2019-04-14T00:20:53.441Z,0.00
2019-04-14T00:21:52.219Z,0.00
2019-04-14T00:22:51.729Z,0.00
2019-04-14T00:23:52.233Z,0.00
2019-04-14T00:24:53.126Z,0.00
2019-04-14T00:25:52.293Z,0.00
2019-04-14T00:26:53.542Z,0.00
2019-04-14T00:27:52.713Z,0.00
2019-04-14T00:28:53.480Z,0.00
2019-04-14T00:29:53.100Z,0.00
2019-04-14T00:30:53.433Z,0.00
2019-04-14T00:31:55.052Z,0.00
2019-04-14T00:32:55.273Z,0.00
2019-04-14T00:33:54.254Z,0.00
2019-04-14T00:34:55.182Z,0.00
2019-04-14T00:35:54.372Z,0.00
2019-04-14T00:36:54.606Z,0.00
2019-04-14T00:37:55.536Z,0.00
2019-04-14T00:38:54.966Z,0.00
2019-04-14T00:39:55.493Z,0.00
2019-04-14T00:40:56.371Z,0.00
2019-04-14T00:41:58.698Z,0.00
2019-04-14T00:42:58.179Z,0.00
2019-04-14T00:43:56.842Z,0.00
2019-04-14T00:44:56.099Z,0.00
2019-04-14T00:45:59.315Z,0.00
2019-04-14T00:46:58.180Z,0.00
2019-04-14T00:48:03.371Z,0.00
2019-04-14T00:48:58.840Z,0.00
2019-04-14T00:49:57.305Z,0.00
2019-04-14T00:50:58.181Z,0.00
2019-04-14T00:51:57.372Z,0.00
2019-04-14T00:52:58.637Z,0.00
2019-04-14T00:53:57.933Z,0.00
2019-04-14T00:54:58.844Z,0.00
2019-04-14T00:55:58.007Z,0.00
2019-04-14T00:56:58.515Z,0.00
2019-04-14T00:57:59.472Z,0.00
2019-04-14T00:58:58.548Z,0.00
2019-04-14T00:59:59.540Z,0.00
2019-04-14T01:01:00.459Z,0.00
2019-04-14T01:01:59.184Z,0.00
2019-04-14T01:03:00.187Z,0.00
2019-04-14T01:03:59.394Z,0.00
2019-04-14T01:05:00.111Z,0.00
2019-04-14T01:06:01.042Z,0.00
2019-04-14T01:07:00.159Z,0.00
2019-04-14T01:08:01.147Z,0.00
2019-04-14T01:09:00.321Z,0.00
2019-04-14T01:10:01.718Z,0.00
2019-04-14T01:11:01.010Z,0.00
2019-04-14T01:12:01.982Z,0.00
2019-04-14T01:13:01.130Z,0.00
2019-04-14T01:14:01.587Z,0.00
2019-04-14T01:15:03.085Z,0.00
2019-04-14T01:16:08.974Z,0.00
2019-04-14T01:17:04.783Z,0.00
2019-04-14T01:18:03.519Z,0.00
2019-04-14T01:19:02.616Z,0.00
2019-04-14T01:20:03.725Z,0.00
2019-04-14T01:21:04.581Z,0.00
2019-04-14T01:22:03.187Z,0.00
2019-04-14T01:23:04.209Z,0.00
2019-04-14T01:24:03.282Z,0.00
2019-04-14T01:25:04.485Z,0.00
2019-04-14T01:26:04.922Z,0.00
2019-04-14T01:27:04.020Z,0.00
2019-04-14T01:28:04.694Z,0.00
2019-04-14T01:29:04.171Z,0.00
2019-04-14T01:30:04.571Z,0.00
2019-04-14T01:31:05.618Z,0.00
2019-04-14T01:32:04.639Z,0.00
2019-04-14T01:33:05.824Z,0.00
2019-04-14T01:34:06.239Z,0.00
2019-04-14T01:35:05.370Z,0.00
2019-04-14T01:36:06.338Z,0.00
2019-04-14T01:37:05.477Z,0.00
2019-04-14T01:38:05.878Z,0.00
2019-04-14T01:39:07.059Z,0.00
2019-04-14T01:40:07.540Z,0.00
2019-04-14T01:41:06.481Z,0.00
2019-04-14T01:42:07.438Z,0.00
2019-04-14T01:43:06.561Z,0.00
2019-04-14T01:44:06.888Z,0.00
2019-04-14T01:45:07.963Z,0.00
2019-04-14T01:46:14.789Z,0.00
2019-04-14T01:47:09.504Z,0.00
2019-04-14T01:48:08.425Z,0.00
2019-04-14T01:49:07.871Z,0.00
2019-04-14T01:50:08.359Z,0.00
2019-04-14T01:51:09.255Z,0.00
2019-04-14T01:52:08.353Z,0.00
2019-04-14T01:53:09.606Z,0.00
2019-04-14T01:54:08.705Z,0.00
2019-04-14T01:55:09.116Z,0.00
2019-04-14T01:56:10.261Z,0.00
2019-04-14T01:57:09.303Z,0.00
2019-04-14T01:58:10.030Z,0.00
2019-04-14T01:59:10.768Z,0.00
2019-04-14T02:00:09.953Z,0.00
2019-04-14T02:01:11.128Z,0.00
2019-04-14T02:02:10.271Z,0.00
2019-04-14T02:03:10.707Z,0.00
2019-04-14T02:04:11.667Z,0.00
2019-04-14T02:05:10.866Z,0.00
2019-04-14T02:06:11.420Z,0.00
2019-04-14T02:07:12.281Z,0.00
2019-04-14T02:08:11.433Z,0.00
2019-04-14T02:09:12.064Z,0.00
2019-04-14T02:10:12.856Z,0.00
2019-04-14T02:11:11.963Z,0.00
2019-04-14T02:12:12.758Z,0.00
2019-04-14T02:13:13.339Z,0.00
2019-04-14T02:14:12.590Z,0.00
2019-04-14T02:15:13.661Z,0.00
2019-04-14T02:16:23.747Z,0.00
2019-04-14T02:17:15.367Z,0.00
2019-04-14T02:18:13.977Z,0.00
2019-04-14T02:19:13.335Z,0.00
2019-04-14T02:20:14.244Z,0.00
2019-04-14T02:21:14.829Z,0.00
2019-04-14T02:22:13.912Z,0.00
2019-04-14T02:23:15.080Z,0.00
2019-04-14T02:24:15.596Z,0.00
2019-04-14T02:25:14.443Z,0.00
2019-04-14T02:26:15.502Z,0.00
2019-04-14T02:27:16.657Z,0.00
2019-04-14T02:28:15.558Z,0.00
2019-04-14T02:29:15.149Z,0.00
2019-04-14T02:30:20.850Z,0.00
2019-04-14T02:31:35.759Z,0.00
2019-04-14T02:32:45.405Z,0.00
2019-04-14T02:33:44.347Z,0.00
2019-04-14T02:35:47.355Z,0.00
2019-04-14T02:36:50.125Z,0.00
2019-04-14T02:37:49.327Z,0.00
2019-04-14T02:38:49.015Z,0.00
2019-04-14T02:39:56.926Z,0.00
2019-04-14T02:42:12.568Z,0.00
2019-04-14T02:42:48.244Z,0.00
2019-04-14T02:43:51.105Z,0.00
2019-04-14T02:44:46.041Z,0.00
2019-04-14T02:45:52.082Z,0.00
2019-04-14T02:47:14.977Z,0.00
2019-04-14T02:50:47.699Z,0.00
2019-04-14T02:51:52.070Z,0.00
2019-04-14T02:53:51.301Z,0.00
2019-04-14T02:55:48.551Z,0.00
2019-04-14T02:57:47.608Z,0.00
2019-04-14T02:58:51.960Z,0.00
2019-04-14T02:59:54.443Z,0.00
2019-04-14T03:00:52.645Z,0.00
2019-04-14T03:04:52.859Z,0.00
2019-04-14T03:05:53.716Z,0.00
2019-04-14T03:06:51.731Z,0.00
2019-04-14T03:07:51.596Z,0.00
2019-04-14T03:09:13.579Z,0.00
2019-04-14T03:09:46.619Z,0.00
2019-04-14T03:10:51.812Z,0.00
2019-04-14T03:13:56.805Z,0.00
2019-04-14T03:14:55.570Z,0.00
2019-04-14T03:17:10.762Z,0.00
2019-04-14T03:18:14.263Z,0.00
2019-04-14T03:20:07.010Z,0.00
2019-04-14T03:22:07.175Z,0.00
2019-04-14T03:22:51.699Z,0.00
2019-04-14T03:24:39.130Z,0.00
2019-04-14T03:25:49.273Z,0.00
2019-04-14T03:26:54.556Z,0.00
2019-04-14T03:27:54.468Z,0.00
2019-04-14T03:28:51.054Z,0.00
2019-04-14T03:31:09.762Z,0.00
2019-04-14T03:32:16.652Z,0.00
2019-04-14T03:34:29.910Z,0.00
2019-04-14T03:34:52.014Z,0.00
2019-04-14T03:36:20.941Z,0.00
2019-04-14T03:38:58.843Z,0.00
2019-04-14T03:39:51.372Z,0.00
2019-04-14T03:41:00.256Z,0.00
2019-04-14T03:42:01.512Z,0.00
2019-04-14T03:43:05.943Z,0.00
2019-04-14T03:43:57.764Z,0.00
2019-04-14T03:44:58.669Z,0.00
2019-04-14T03:47:00.799Z,0.00
2019-04-14T03:48:20.613Z,0.00
2019-04-14T03:49:03.548Z,0.00
2019-04-14T03:50:00.443Z,0.00
2019-04-14T03:51:00.292Z,0.00
2019-04-14T03:51:59.655Z,0.00
2019-04-14T03:53:05.848Z,0.00
2019-04-14T03:53:58.715Z,0.00
2019-04-14T03:55:40.106Z,0.00
2019-04-14T03:56:33.973Z,0.00
2019-04-14T03:57:32.715Z,0.00
2019-04-14T03:58:33.480Z,0.00
2019-04-14T03:59:32.616Z,0.00
2019-04-14T04:00:33.558Z,0.00
2019-04-14T04:01:32.982Z,0.00
2019-04-14T04:02:33.701Z,0.00
2019-04-14T04:03:34.555Z,0.00
2019-04-14T04:04:33.802Z,0.00
2019-04-14T04:05:34.643Z,0.00
2019-04-14T04:06:33.813Z,0.00
2019-04-14T04:07:34.302Z,0.00
2019-04-14T04:08:34.148Z,0.00
2019-04-14T04:09:34.421Z,0.00
2019-04-14T04:10:35.668Z,0.00
2019-04-14T04:11:34.632Z,0.00
2019-04-14T04:12:35.728Z,0.00
2019-04-14T04:13:34.973Z,0.00
2019-04-14T04:14:35.728Z,0.00
2019-04-14T04:15:36.447Z,4.00
2019-04-14T04:16:35.592Z,0.00
2019-04-14T04:17:36.282Z,0.00
2019-04-14T04:18:47.328Z,4.00
2019-04-14T04:19:38.384Z,0.00
2019-04-14T04:20:37.099Z,4.00
2019-04-14T04:21:36.570Z,4.00
2019-04-14T04:22:36.931Z,4.00
2019-04-14T04:23:38.124Z,8.00
2019-04-14T04:24:37.163Z,8.00
2019-04-14T04:25:37.833Z,4.00
2019-04-14T04:26:38.628Z,8.00
2019-04-14T04:27:37.705Z,12.00
2019-04-14T04:28:38.488Z,12.00
2019-04-14T04:29:38.027Z,12.00
2019-04-14T04:30:38.353Z,12.00
2019-04-14T04:31:39.539Z,16.00
2019-04-14T04:32:38.636Z,20.00
2019-04-14T04:33:39.372Z,20.00
2019-04-14T04:34:40.157Z,24.00
2019-04-14T04:35:39.363Z,24.00
2019-04-14T04:36:39.875Z,24.00
2019-04-14T04:37:39.426Z,28.00
2019-04-14T04:38:39.880Z,32.00
2019-04-14T04:39:41.163Z,32.00
2019-04-14T04:40:41.857Z,32.00
2019-04-14T04:41:40.756Z,40.00
2019-04-14T04:42:41.541Z,48.00
2019-04-14T04:43:40.852Z,48.00
2019-04-14T04:44:42.150Z,52.00
2019-04-14T04:45:43.028Z,60.00
2019-04-14T04:46:42.208Z,72.00
2019-04-14T04:47:42.575Z,72.00
2019-04-14T04:48:41.566Z,80.00
2019-04-14T04:49:42.633Z,96.00
2019-04-14T04:50:43.064Z,96.00
2019-04-14T04:51:42.175Z,108.00
2019-04-14T04:52:42.921Z,116.00
2019-04-14T04:53:42.383Z,120.00
2019-04-14T04:54:42.819Z,116.00
2019-04-14T04:55:43.883Z,116.00
2019-04-14T04:56:42.991Z,120.00
2019-04-14T04:57:43.819Z,128.00
2019-04-14T04:58:43.511Z,140.00
2019-04-14T04:59:43.553Z,152.00
2019-04-14T05:00:44.808Z,180.00
2019-04-14T05:01:45.177Z,196.00
2019-04-14T05:02:46.046Z,204.00
2019-04-14T05:03:44.951Z,216.00
2019-04-14T05:04:44.377Z,236.00
2019-04-14T05:05:44.957Z,256.00
2019-04-14T05:06:45.815Z,248.00
2019-04-14T05:07:44.926Z,296.00
2019-04-14T05:08:45.559Z,348.00
2019-04-14T05:09:45.229Z,400.00
2019-04-14T05:10:45.709Z,444.00
2019-04-14T05:11:45.528Z,480.00
2019-04-14T05:12:45.764Z,496.00
2019-04-14T05:13:46.876Z,496.00
2019-04-14T05:14:47.984Z,444.00
2019-04-14T05:15:46.588Z,432.00
2019-04-14T05:16:46.391Z,452.00
2019-04-14T05:17:47.411Z,544.00
2019-04-14T05:18:46.771Z,536.00
2019-04-14T05:19:47.559Z,540.00
2019-04-14T05:20:47.159Z,572.00
2019-04-14T05:21:47.433Z,564.00
2019-04-14T05:22:48.571Z,624.00
2019-04-14T05:23:47.750Z,656.00
2019-04-14T05:24:48.580Z,632.00
2019-04-14T05:25:49.419Z,644.00
2019-04-14T05:26:48.558Z,616.00
2019-04-14T05:27:49.450Z,656.00
2019-04-14T05:28:48.732Z,692.00
2019-04-14T05:29:49.937Z,764.00
2019-04-14T05:30:50.274Z,864.00
2019-04-14T05:31:49.253Z,816.00
2019-04-14T05:32:50.126Z,772.00
2019-04-14T05:33:49.579Z,784.00
2019-04-14T05:34:50.724Z,836.00
2019-04-14T05:35:51.017Z,860.00
2019-04-14T05:36:52.137Z,956.00
2019-04-14T05:37:50.761Z,920.00
2019-04-14T05:38:51.685Z,896.00
2019-04-14T05:39:50.702Z,976.00
2019-04-14T05:40:51.793Z,1108.00
2019-04-14T05:42:00.574Z,1044.00
2019-04-14T05:42:53.735Z,1012.00
2019-04-14T05:43:56.571Z,1188.00
2019-04-14T05:44:53.692Z,1156.00
2019-04-14T05:45:52.303Z,1240.00
2019-04-14T05:46:51.977Z,1336.00
2019-04-14T05:47:52.305Z,1360.00
2019-04-14T05:48:53.506Z,1456.00
2019-04-14T05:49:54.952Z,1516.00
2019-04-14T05:50:53.748Z,1500.00
2019-04-14T05:51:52.897Z,1492.00
2019-04-14T05:52:53.538Z,1616.00
2019-04-14T05:53:54.410Z,1660.00
2019-04-14T05:54:53.630Z,1908.00
2019-04-14T05:55:54.673Z,1840.00
2019-04-14T05:56:53.792Z,1824.00
2019-04-14T05:57:54.533Z,1652.00
2019-04-14T05:58:54.155Z,1748.00
2019-04-14T05:59:54.817Z,1720.00
2019-04-14T06:00:55.715Z,1652.00
2019-04-14T06:01:54.742Z,1556.00
2019-04-14T06:02:55.216Z,1360.00
2019-04-14T06:03:56.114Z,1332.00
2019-04-14T06:04:55.264Z,1472.00
2019-04-14T06:05:55.474Z,1664.00
2019-04-14T06:06:55.663Z,1780.00
2019-04-14T06:07:55.819Z,1792.00
2019-04-14T06:08:56.007Z,1800.00
2019-04-14T06:09:56.174Z,1676.00
2019-04-14T06:10:56.346Z,2356.00
2019-04-14T06:11:56.544Z,2260.00
2019-04-14T06:12:56.682Z,1976.00
2019-04-14T06:13:56.818Z,1984.00
2019-04-14T06:14:56.977Z,2200.00
2019-04-14T06:15:57.139Z,2216.00
2019-04-14T06:16:57.339Z,2388.00
2019-04-14T06:17:57.521Z,2888.00
2019-04-14T06:18:57.684Z,3604.00
2019-04-14T06:19:57.858Z,3804.00
2019-04-14T06:20:58.053Z,3864.00
2019-04-14T06:21:58.218Z,3804.00
2019-04-14T06:22:58.366Z,3860.00
2019-04-14T06:23:58.560Z,4024.00
2019-04-14T06:24:58.697Z,4032.00
2019-04-14T06:25:58.850Z,4028.00
2019-04-14T06:26:59.017Z,4160.00
2019-04-14T06:27:59.181Z,4240.00
2019-04-14T06:28:59.377Z,4372.00
2019-04-14T06:29:59.539Z,4356.00
2019-04-14T06:30:59.683Z,4444.00
2019-04-14T06:31:59.827Z,4480.00
2019-04-14T06:32:59.981Z,4496.00
2019-04-14T06:34:00.215Z,4544.00
2019-04-14T06:35:00.374Z,4648.00
2019-04-14T06:36:00.557Z,4640.00
2019-04-14T06:37:00.701Z,4740.00
2019-04-14T06:38:00.860Z,4828.00
2019-04-14T06:39:01.019Z,4780.00
2019-04-14T06:40:02.175Z,4860.00
2019-04-14T06:41:01.341Z,4844.00
2019-04-14T06:42:01.524Z,4904.00
2019-04-14T06:43:01.724Z,4924.00
2019-04-14T06:44:01.893Z,4972.00
2019-04-14T06:45:02.078Z,5088.00
2019-04-14T06:46:02.253Z,5196.00
2019-04-14T06:47:02.446Z,5284.00
2019-04-14T06:48:02.658Z,5264.00
2019-04-14T06:49:02.835Z,5440.00
2019-04-14T06:50:03.033Z,5436.00
2019-04-14T06:51:03.228Z,5496.00
2019-04-14T06:52:03.390Z,5532.00
2019-04-14T06:53:03.544Z,5532.00
2019-04-14T06:54:03.720Z,5580.00
2019-04-14T06:55:03.911Z,5588.00
2019-04-14T06:56:04.038Z,5524.00
2019-04-14T06:57:04.190Z,5612.00
2019-04-14T06:58:04.367Z,6056.00
2019-04-14T06:59:04.513Z,6176.00
2019-04-14T07:00:04.698Z,6140.00
2019-04-14T07:01:04.870Z,5896.00
2019-04-14T07:02:05.082Z,6028.00
2019-04-14T07:03:05.227Z,6576.00
2019-04-14T07:04:06.413Z,6456.00
2019-04-14T07:05:05.587Z,6204.00
2019-04-14T07:06:05.786Z,6264.00
2019-04-14T07:07:05.943Z,6344.00
2019-04-14T07:08:06.102Z,6408.00
2019-04-14T07:09:06.276Z,6436.00
2019-04-14T07:10:06.477Z,6528.00
2019-04-14T07:11:06.679Z,6636.00
2019-04-14T07:12:06.868Z,6640.00
2019-04-14T07:13:06.984Z,6660.00
2019-04-14T07:14:07.126Z,6640.00
2019-04-14T07:15:07.312Z,7076.00
2019-04-14T07:16:07.499Z,7032.00
2019-04-14T07:17:07.641Z,6932.00
2019-04-14T07:18:07.799Z,6956.00
2019-04-14T07:19:07.967Z,6996.00
2019-04-14T07:20:08.130Z,7072.00
2019-04-14T07:21:08.261Z,7352.00
2019-04-14T07:22:08.416Z,7400.00
2019-04-14T07:23:08.546Z,7128.00
2019-04-14T07:24:08.680Z,7244.00
2019-04-14T07:25:08.825Z,7300.00
2019-04-14T07:26:08.972Z,7412.00
2019-04-14T07:27:09.087Z,7556.00
2019-04-14T07:28:09.316Z,7672.00
2019-04-14T07:29:09.559Z,7524.00
2019-04-14T07:30:09.690Z,7880.00
2019-04-14T07:31:09.859Z,7524.00
2019-04-14T07:32:09.978Z,7628.00
2019-04-14T07:33:10.173Z,7572.00
2019-04-14T07:34:10.305Z,7624.00
2019-04-14T07:35:10.439Z,7792.00
2019-04-14T07:36:10.634Z,7852.00
2019-04-14T07:37:10.831Z,7836.00
2019-04-14T07:38:10.984Z,7892.00
2019-04-14T07:39:11.120Z,8008.00
2019-04-14T07:40:11.277Z,7760.00
2019-04-14T07:41:11.422Z,8088.00
2019-04-14T07:42:11.577Z,8292.00
2019-04-14T07:43:11.779Z,8448.00
2019-04-14T07:44:14.835Z,8720.00
2019-04-14T07:45:12.058Z,8880.00
2019-04-14T07:46:12.208Z,8876.00
2019-04-14T07:47:12.419Z,9180.00
2019-04-14T07:48:12.578Z,9116.00
2019-04-14T07:49:12.710Z,9120.00
2019-04-14T07:50:14.833Z,8980.00
2019-04-14T07:51:14.018Z,8880.00
2019-04-14T07:52:13.253Z,9076.00
2019-04-14T07:53:13.412Z,9088.00
2019-04-14T07:54:13.556Z,9208.00
2019-04-14T07:55:13.692Z,9404.00
2019-04-14T07:56:13.879Z,9460.00
2019-04-14T07:57:14.017Z,9836.00
2019-04-14T07:58:14.186Z,10312.00
2019-04-14T07:59:14.345Z,10892.00
2019-04-14T08:00:14.506Z,10880.00
2019-04-14T08:01:14.662Z,10372.00
2019-04-14T08:02:14.806Z,11712.00
2019-04-14T08:03:14.972Z,11696.00
2019-04-14T08:04:15.161Z,11060.00
2019-04-14T08:05:15.311Z,10736.00
2019-04-14T08:06:15.466Z,11252.00
2019-04-14T08:07:15.636Z,10524.00
2019-04-14T08:08:15.798Z,10252.00
2019-04-14T08:09:15.970Z,11368.00
2019-04-14T08:10:16.155Z,15776.00
2019-04-14T08:11:16.310Z,20320.00
2019-04-14T08:12:16.449Z,14920.00
2019-04-14T08:13:16.619Z,15776.00
2019-04-14T08:14:16.806Z,15040.00
2019-04-14T08:15:16.939Z,15076.00
2019-04-14T08:16:17.112Z,15488.00
2019-04-14T08:17:17.274Z,13940.00
2019-04-14T08:18:17.446Z,14572.00
2019-04-14T08:19:17.647Z,11372.00
2019-04-14T08:20:27.263Z,14200.00
2019-04-14T08:21:19.969Z,13028.00
2019-04-14T08:22:18.090Z,15360.00
2019-04-14T08:23:18.290Z,14876.00
2019-04-14T08:24:18.448Z,13416.00
2019-04-14T08:25:18.666Z,13756.00
2019-04-14T08:26:18.827Z,14580.00
2019-04-14T08:27:18.978Z,16352.00
2019-04-14T08:28:21.259Z,17408.00
2019-04-14T08:29:19.344Z,17824.00
2019-04-14T08:30:19.542Z,21504.00
2019-04-14T08:31:19.724Z,19488.00
2019-04-14T08:32:19.934Z,23296.00
2019-04-14T08:33:20.125Z,24128.00
2019-04-14T08:34:20.299Z,21216.00
2019-04-14T08:35:20.520Z,20000.00
2019-04-14T08:36:20.734Z,20960.00
2019-04-14T08:37:20.950Z,25056.00
2019-04-14T08:38:21.158Z,24992.00
2019-04-14T08:39:21.338Z,22848.00
2019-04-14T08:40:21.551Z,18464.00
2019-04-14T08:41:21.755Z,23232.00
2019-04-14T08:42:21.923Z,22464.00
2019-04-14T08:43:22.144Z,19584.00
2019-04-14T08:44:22.369Z,22464.00
2019-04-14T08:45:22.573Z,22496.00
2019-04-14T08:46:22.803Z,29248.00
2019-04-14T08:47:23.004Z,29408.00
2019-04-14T08:48:23.214Z,30496.00
2019-04-14T08:49:23.441Z,32384.00
2019-04-14T08:50:23.662Z,34176.00
2019-04-14T08:51:23.844Z,34688.00
2019-04-14T08:52:24.357Z,36512.00
2019-04-14T08:53:25.294Z,34848.00
2019-04-14T08:54:25.486Z,32192.00
2019-04-14T08:55:24.667Z,29312.00
2019-04-14T08:56:24.890Z,27360.00
2019-04-14T08:57:25.081Z,25440.00
2019-04-14T08:58:25.305Z,24448.00
2019-04-14T08:59:25.467Z,23392.00
2019-04-14T09:00:25.652Z,23552.00
2019-04-14T09:01:25.830Z,21792.00
2019-04-14T09:02:26.033Z,23936.00
2019-04-14T09:03:26.263Z,23456.00
2019-04-14T09:04:26.535Z,23616.00
2019-04-14T09:05:26.624Z,23808.00
2019-04-14T09:06:26.807Z,28928.00
2019-04-14T09:07:26.948Z,35232.00
2019-04-14T09:08:28.155Z,48672.00
2019-04-14T09:09:27.288Z,42240.00
2019-04-14T09:10:27.491Z,35040.00
2019-04-14T09:11:27.686Z,41984.00
2019-04-14T09:12:27.893Z,29856.00
2019-04-14T09:13:28.075Z,40192.00
2019-04-14T09:14:28.303Z,44000.00
2019-04-14T09:15:28.465Z,51136.00
2019-04-14T09:16:28.639Z,21824.00
2019-04-14T09:17:28.818Z,36832.00
2019-04-14T09:18:28.988Z,21408.00
2019-04-14T09:19:29.184Z,58304.00
2019-04-14T09:20:29.392Z,26016.00
2019-04-14T09:21:29.548Z,23680.00
2019-04-14T09:22:29.732Z,37760.00
2019-04-14T09:23:29.936Z,37920.00
2019-04-14T09:24:30.099Z,48256.00
2019-04-14T09:25:30.304Z,54048.00
2019-04-14T09:26:30.483Z,59200.00
2019-04-14T09:27:30.652Z,31520.00
2019-04-14T09:28:30.865Z,60000.00
2019-04-14T09:29:31.046Z,40736.00
2019-04-14T09:30:31.242Z,41248.00
2019-04-14T09:31:31.474Z,31680.00
2019-04-14T09:32:31.651Z,46688.00
2019-04-14T09:33:31.835Z,52864.00
2019-04-14T09:34:31.995Z,46016.00
2019-04-14T09:35:32.160Z,45024.00
2019-04-14T09:36:32.334Z,39552.00
2019-04-14T09:37:32.484Z,31168.00
2019-04-14T09:38:32.640Z,54592.00
2019-04-14T09:39:32.788Z,33664.00
2019-04-14T09:40:32.948Z,24000.00
2019-04-14T09:41:33.124Z,16544.00
2019-04-14T09:42:33.286Z,56096.00
2019-04-14T09:43:33.437Z,20992.00
2019-04-14T09:44:33.613Z,38016.00
2019-04-14T09:45:34.784Z,40384.00
2019-04-14T09:46:33.924Z,8160.00
2019-04-14T09:47:34.079Z,59648.00
2019-04-14T09:48:34.260Z,22816.00
2019-04-14T09:49:34.434Z,54816.00
2019-04-14T09:50:34.632Z,54016.00
2019-04-14T09:51:34.792Z,38176.00
2019-04-14T09:52:35.988Z,49504.00
2019-04-14T09:53:35.138Z,48128.00
2019-04-14T09:54:35.297Z,20512.00
2019-04-14T09:55:35.517Z,25472.00
2019-04-14T09:56:35.684Z,46624.00
2019-04-14T09:57:36.037Z,46944.00
2019-04-14T09:58:36.066Z,23584.00
2019-04-14T09:59:36.265Z,24128.00
2019-04-14T10:00:36.441Z,16580.00
2019-04-14T10:01:36.666Z,39392.00
2019-04-14T10:02:36.890Z,39584.00
2019-04-14T10:03:37.096Z,62336.00
2019-04-14T10:04:37.314Z,46016.00
2019-04-14T10:05:37.517Z,45408.00
2019-04-14T10:06:37.719Z,60896.00
2019-04-14T10:07:37.927Z,58912.00
2019-04-14T10:08:38.040Z,20288.00
2019-04-14T10:09:38.176Z,22528.00
2019-04-14T10:10:38.399Z,21536.00
2019-04-14T10:11:48.497Z,34688.00
2019-04-14T10:12:40.811Z,60832.00
2019-04-14T10:13:38.950Z,59104.00
2019-04-14T10:14:39.132Z,61920.00
2019-04-14T10:15:39.332Z,47488.00
2019-04-14T10:16:39.494Z,40224.00
2019-04-14T10:17:39.682Z,28320.00
2019-04-14T10:18:39.881Z,32608.00
2019-04-14T10:19:40.105Z,57472.00
2019-04-14T10:20:40.280Z,58048.00
2019-04-14T10:21:40.460Z,51232.00
2019-04-14T10:22:40.650Z,49120.00
2019-04-14T10:23:40.823Z,47904.00
2019-04-14T10:24:41.039Z,33760.00
2019-04-14T10:25:41.239Z,27392.00
2019-04-14T10:26:41.422Z,40320.00
2019-04-14T10:27:41.658Z,56960.00
2019-04-14T10:28:41.863Z,63072.00
2019-04-14T10:29:42.072Z,64768.00
2019-04-14T10:30:42.279Z,64544.00
2019-04-14T10:31:42.448Z,58400.00
2019-04-14T10:32:42.634Z,59456.00
2019-04-14T10:33:42.825Z,62112.00
2019-04-14T10:34:43.058Z,55232.00
2019-04-14T10:35:43.234Z,69216.00
2019-04-14T10:36:43.437Z,73120.00
2019-04-14T10:37:43.614Z,72320.00
2019-04-14T10:38:43.823Z,69696.00
2019-04-14T10:39:43.989Z,70592.00
2019-04-14T10:40:44.183Z,70368.00
2019-04-14T10:41:44.369Z,30848.00
2019-04-14T10:42:44.569Z,24896.00
2019-04-14T10:43:44.791Z,65888.00
2019-04-14T10:44:44.994Z,27552.00
2019-04-14T10:45:45.191Z,72832.00
2019-04-14T10:46:45.459Z,25472.00
2019-04-14T10:47:45.591Z,16088.00
2019-04-14T10:48:45.657Z,15964.00
2019-04-14T10:49:45.868Z,30624.00
2019-04-14T10:50:46.080Z,62528.00
2019-04-14T10:51:46.304Z,21344.00
2019-04-14T10:52:46.524Z,65280.00
2019-04-14T10:53:46.731Z,61920.00
2019-04-14T10:54:46.911Z,63520.00
2019-04-14T10:55:47.111Z,61728.00
2019-04-14T10:56:47.302Z,62208.00
2019-04-14T10:57:47.508Z,19552.00
2019-04-14T10:58:47.688Z,62656.00
2019-04-14T10:59:47.894Z,64256.00
2019-04-14T11:00:48.134Z,64768.00
2019-04-14T11:01:48.337Z,34880.00
2019-04-14T11:02:48.583Z,66272.00
2019-04-14T11:03:48.751Z,28480.00
2019-04-14T11:04:48.970Z,65504.00
2019-04-14T11:05:49.158Z,19168.00
2019-04-14T11:06:49.350Z,25280.00
2019-04-14T11:07:49.547Z,18464.00
2019-04-14T11:08:49.725Z,19360.00
2019-04-14T11:09:49.944Z,24672.00
2019-04-14T11:10:50.134Z,68544.00
2019-04-14T11:11:50.373Z,23808.00
2019-04-14T11:12:50.594Z,15248.00
2019-04-14T11:13:50.776Z,15048.00
2019-04-14T11:14:51.066Z,56640.00
2019-04-14T11:15:51.152Z,61504.00
2019-04-14T11:16:51.373Z,64992.00
2019-04-14T11:17:51.569Z,44256.00
2019-04-14T11:18:51.815Z,18784.00
2019-04-14T11:19:52.028Z,66080.00
2019-04-14T11:20:52.252Z,69216.00
2019-04-14T11:21:52.504Z,67360.00
2019-04-14T11:23:02.697Z,64288.00
2019-04-14T11:23:54.750Z,60896.00
2019-04-14T11:24:52.891Z,14768.00
2019-04-14T11:25:53.020Z,19008.00
2019-04-14T11:26:53.281Z,69024.00
2019-04-14T11:27:53.367Z,51520.00
2019-04-14T11:28:53.633Z,15816.00
2019-04-14T11:29:54.153Z,14868.00
2019-04-14T11:30:54.915Z,60768.00
2019-04-14T11:31:54.103Z,63936.00
2019-04-14T11:32:54.335Z,65696.00
2019-04-14T11:33:54.553Z,33216.00
2019-04-14T11:34:54.652Z,69120.00
2019-04-14T11:35:54.840Z,21568.00
2019-04-14T11:36:54.938Z,26592.00
2019-04-14T11:37:55.075Z,24992.00
2019-04-14T11:38:55.292Z,68032.00
2019-04-14T11:39:55.474Z,66688.00
2019-04-14T11:40:55.660Z,26176.00
2019-04-14T11:41:55.817Z,16780.00
2019-04-14T11:42:56.054Z,14988.00
2019-04-14T11:43:56.252Z,56480.00
2019-04-14T11:44:56.461Z,61184.00
2019-04-14T11:45:56.657Z,40928.00
2019-04-14T11:46:56.846Z,52896.00
2019-04-14T11:47:57.021Z,18112.00
2019-04-14T11:48:57.234Z,57216.00
2019-04-14T11:49:57.387Z,56448.00
2019-04-14T11:50:57.554Z,59616.00
2019-04-14T11:51:57.736Z,60864.00
2019-04-14T11:52:57.934Z,64032.00
2019-04-14T11:53:58.122Z,63680.00
2019-04-14T11:54:58.266Z,63680.00
2019-04-14T11:55:58.474Z,64672.00
2019-04-14T11:56:58.639Z,66272.00
2019-04-14T11:57:58.914Z,64800.00
2019-04-14T11:58:58.936Z,62208.00
2019-04-14T11:59:59.108Z,60192.00
2019-04-14T12:00:59.281Z,65056.00
2019-04-14T12:01:59.484Z,31904.00
2019-04-14T12:02:59.699Z,30976.00
2019-04-14T12:03:59.881Z,65024.00
2019-04-14T12:05:00.099Z,65792.00
2019-04-14T12:06:00.335Z,67712.00
2019-04-14T12:07:00.524Z,17664.00
2019-04-14T12:08:00.742Z,65920.00
2019-04-14T12:09:01.172Z,61216.00
2019-04-14T12:10:01.078Z,17184.00
2019-04-14T12:11:01.296Z,19840.00
2019-04-14T12:12:01.472Z,19936.00
2019-04-14T12:13:01.693Z,59904.00
2019-04-14T12:14:01.869Z,13128.00
2019-04-14T12:15:02.038Z,11496.00
2019-04-14T12:16:02.222Z,12412.00
2019-04-14T12:17:02.447Z,13028.00
2019-04-14T12:18:02.632Z,15352.00
2019-04-14T12:19:02.828Z,57440.00
2019-04-14T12:20:03.017Z,60032.00
2019-04-14T12:21:03.272Z,56672.00
2019-04-14T12:22:08.506Z,45600.00
2019-04-14T12:23:05.530Z,30464.00
2019-04-14T12:24:03.715Z,33728.00
2019-04-14T12:25:03.952Z,50496.00
2019-04-14T12:26:05.506Z,58240.00
2019-04-14T12:27:05.411Z,60032.00
2019-04-14T12:28:04.832Z,28448.00
2019-04-14T12:29:06.405Z,32384.00
2019-04-14T12:30:05.013Z,19584.00
2019-04-14T12:31:06.412Z,16992.00
2019-04-14T12:32:06.381Z,23008.00
2019-04-14T12:33:05.574Z,53920.00
2019-04-14T12:34:05.747Z,27840.00
2019-04-14T12:35:05.936Z,52224.00
2019-04-14T12:36:06.148Z,24192.00
2019-04-14T12:37:06.319Z,24960.00
2019-04-14T12:38:06.581Z,21696.00
2019-04-14T12:39:06.642Z,18208.00
2019-04-14T12:40:07.394Z,15584.00
2019-04-14T12:41:08.250Z,14596.00
2019-04-14T12:42:07.249Z,13492.00
2019-04-14T12:43:07.331Z,11868.00
2019-04-14T12:44:07.513Z,9820.00
2019-04-14T12:45:07.716Z,8552.00
2019-04-14T12:46:07.898Z,7816.00
2019-04-14T12:47:08.060Z,7516.00
2019-04-14T12:48:08.328Z,7548.00